Check out our new PWSWeather beta!
PWSweather.com
Personal Weather Stations
Station Observations
TXALLEN104
Watters Crossing, Allen, TX 75013

Watters CrossingAllen, TX 75013

Lat: 33.096, Lon: -96.697

Elevation: 672

Station Type: Davis Vantage Pro2 Plus

http://www.allenweather.com

Latest ConditionsUpdated 12:45:00 PM CST Monday, Feb 24, 2020
Currently Today's Max Today's Min Today's Average
Temperature 62.0°F16.7°C 62.0°F16.7°C 51.9°F11.1°C 57.5°F14.2°C
Dew Point 43.7°F6.5°C 58.1°F14.5°C 41.2°F5.1°C 48.9°F9.4°C
Winds 9.0 mph NW14.5 kmh NW 12.0 mph -19.3 kmh - - 5.1 mph 8.2 kmh
Wind Gusts 16.0 mph25.7 kmh 35.0 mph56.3 kmh - -
Humidity 51% 92% 50% 74%
Pressure 29.74 in1007.1 mb 29.78 in1008.5 mb 29.69 in1005.4 mb -
Precipitation - 0.01 in0.3 mm - -
Hour Temp Dew Point Humidity Winds Wind Gusts Pressure Precip Precip Rate Daily Precip Total
12:45 PM 62.0°F16.7°C 43.7°F6.5°C 51% 9.0 mph NW14.5 kmh NW 16.0 mph25.7 kmh 29.74 in1007.1 mb 0.00 in0.0 mm 0.00 in0.0 mm 0.01 in0.3 mm
12:40 PM 61.9°F16.6°C 43.1°F6.2°C 50% 9.0 mph NW14.5 kmh NW 21.0 mph33.8 kmh 29.75 in1007.5 mb 0.00 in0.0 mm 0.00 in0.0 mm 0.01 in0.3 mm
12:35 PM 61.8°F16.6°C 43.5°F6.4°C 51% 10.0 mph NW16.1 kmh NW 21.0 mph33.8 kmh 29.74 in1007.1 mb 0.00 in0.0 mm 0.00 in0.0 mm 0.01 in0.3 mm
12:30 PM 61.2°F16.2°C 42.9°F6.1°C 51% 10.0 mph NW16.1 kmh NW 19.0 mph30.6 kmh 29.75 in1007.5 mb 0.00 in0.0 mm 0.00 in0.0 mm 0.01 in0.3 mm
12:25 PM 61.4°F16.3°C 43.6°F6.4°C 52% 11.0 mph NW17.7 kmh NW 20.0 mph32.2 kmh 29.75 in1007.5 mb 0.00 in0.0 mm 0.00 in0.0 mm 0.01 in0.3 mm
12:20 PM 61.2°F16.2°C 43.9°F6.6°C 53% 9.0 mph NW14.5 kmh NW 18.0 mph29.0 kmh 29.74 in1007.1 mb 0.00 in0.0 mm 0.00 in0.0 mm 0.01 in0.3 mm
12:15 PM 60.7°F15.9°C 43.0°F6.1°C 52% 11.0 mph NW17.7 kmh NW 19.0 mph30.6 kmh 29.74 in1007.1 mb 0.00 in0.0 mm 0.00 in0.0 mm 0.01 in0.3 mm
12:10 PM 60.7°F15.9°C 43.5°F6.4°C 53% 10.0 mph NW16.1 kmh NW 18.0 mph29.0 kmh 29.75 in1007.5 mb 0.00 in0.0 mm 0.00 in0.0 mm 0.01 in0.3 mm
12:05 PM 60.6°F15.9°C 43.4°F6.3°C 53% 9.0 mph NW14.5 kmh NW 15.0 mph24.1 kmh 29.75 in1007.5 mb 0.00 in0.0 mm 0.00 in0.0 mm 0.01 in0.3 mm
12:00 PM 60.5°F15.8°C 43.3°F6.3°C 53% 9.0 mph NW14.5 kmh NW 18.0 mph29.0 kmh 29.75 in1007.5 mb 0.00 in0.0 mm 0.00 in0.0 mm 0.01 in0.3 mm
11:55 AM 60.2°F15.7°C 43.0°F6.1°C 53% 8.0 mph NW12.9 kmh NW 18.0 mph29.0 kmh 29.75 in1007.5 mb 0.00 in0.0 mm 0.00 in0.0 mm 0.01 in0.3 mm
11:50 AM 60.1°F15.6°C 42.9°F6.1°C 53% 6.0 mph NW9.7 kmh NW 14.0 mph22.5 kmh 29.75 in1007.5 mb 0.00 in0.0 mm 0.00 in0.0 mm 0.01 in0.3 mm
11:45 AM 60.4°F15.8°C 43.2°F6.2°C 53% 7.0 mph NW11.3 kmh NW 15.0 mph24.1 kmh 29.75 in1007.5 mb 0.00 in0.0 mm 0.00 in0.0 mm 0.01 in0.3 mm
11:40 AM 60.2°F15.7°C 43.5°F6.4°C 54% 5.0 mph NW8.0 kmh NW 12.0 mph19.3 kmh 29.75 in1007.5 mb 0.00 in0.0 mm 0.00 in0.0 mm 0.01 in0.3 mm
11:35 AM 59.3°F15.2°C 42.7°F5.9°C 54% 6.0 mph NNW9.7 kmh NNW 13.0 mph20.9 kmh 29.75 in1007.5 mb 0.01 in0.3 mm 0.00 in0.0 mm 0.01 in0.3 mm
11:30 AM 58.7°F14.8°C 42.1°F5.6°C 54% 8.0 mph NNW12.9 kmh NNW 19.0 mph30.6 kmh 29.75 in1007.5 mb 0.01 in0.3 mm 0.00 in0.0 mm 0.01 in0.3 mm
11:25 AM 58.6°F14.8°C 42.5°F5.8°C 55% 8.0 mph NNW12.9 kmh NNW 17.0 mph27.4 kmh 29.75 in1007.5 mb 0.01 in0.3 mm 0.00 in0.0 mm 0.01 in0.3 mm
11:20 AM 58.8°F14.9°C 42.2°F5.7°C 54% 7.0 mph NNW11.3 kmh NNW 16.0 mph25.7 kmh 29.75 in1007.5 mb 0.01 in0.3 mm 0.00 in0.0 mm 0.01 in0.3 mm
11:15 AM 58.5°F14.7°C 41.9°F5.5°C 54% 7.0 mph NNW11.3 kmh NNW 19.0 mph30.6 kmh 29.76 in1007.8 mb 0.01 in0.3 mm 0.00 in0.0 mm 0.01 in0.3 mm
11:10 AM 58.4°F14.7°C 42.3°F5.7°C 55% 9.0 mph NW14.5 kmh NW 23.0 mph37.0 kmh 29.75 in1007.5 mb 0.01 in0.3 mm 0.00 in0.0 mm 0.01 in0.3 mm
11:05 AM 58.0°F14.4°C 41.9°F5.5°C 55% 9.0 mph NNW14.5 kmh NNW 19.0 mph30.6 kmh 29.75 in1007.5 mb 0.01 in0.3 mm 0.00 in0.0 mm 0.01 in0.3 mm
11:00 AM 57.7°F14.3°C 41.2°F5.1°C 54% 11.0 mph NW17.7 kmh NW 22.0 mph35.4 kmh 29.75 in1007.5 mb 0.01 in0.3 mm 0.00 in0.0 mm 0.01 in0.3 mm
10:55 AM 57.9°F14.4°C 41.4°F5.2°C 54% 9.0 mph NW14.5 kmh NW 20.0 mph32.2 kmh 29.75 in1007.5 mb 0.01 in0.3 mm 0.00 in0.0 mm 0.01 in0.3 mm
10:50 AM 57.9°F14.4°C 42.3°F5.7°C 56% 8.0 mph NW12.9 kmh NW 22.0 mph35.4 kmh 29.75 in1007.5 mb 0.01 in0.3 mm 0.00 in0.0 mm 0.01 in0.3 mm
10:45 AM 57.2°F14.0°C 41.6°F5.3°C 56% 10.0 mph NW16.1 kmh NW 28.0 mph45.1 kmh 29.75 in1007.5 mb 0.01 in0.3 mm 0.00 in0.0 mm 0.01 in0.3 mm
10:40 AM 57.1°F13.9°C 41.6°F5.3°C 56% 12.0 mph NW19.3 kmh NW 35.0 mph56.3 kmh 29.74 in1007.1 mb 0.01 in0.3 mm 0.12 in3.0 mm 0.01 in0.3 mm
10:35 AM 57.6°F14.2°C 42.0°F5.6°C 56% 6.0 mph NW9.7 kmh NW 15.0 mph24.1 kmh 29.74 in1007.1 mb 0.00 in0.0 mm 0.00 in0.0 mm 0.00 in0.0 mm
10:30 AM 57.0°F13.9°C 41.9°F5.5°C 57% 9.0 mph NW14.5 kmh NW 18.0 mph29.0 kmh 29.74 in1007.1 mb 0.00 in0.0 mm 0.00 in0.0 mm 0.00 in0.0 mm
10:25 AM 56.9°F13.8°C 41.8°F5.4°C 57% 7.0 mph NW11.3 kmh NW 22.0 mph35.4 kmh 29.74 in1007.1 mb 0.00 in0.0 mm 0.00 in0.0 mm 0.00 in0.0 mm
10:20 AM 56.6°F13.7°C 41.5°F5.3°C 57% 10.0 mph NW16.1 kmh NW 19.0 mph30.6 kmh 29.74 in1007.1 mb 0.00 in0.0 mm 0.00 in0.0 mm 0.00 in0.0 mm
10:15 AM 56.1°F13.4°C 41.5°F5.3°C 58% 9.0 mph NW14.5 kmh NW 23.0 mph37.0 kmh 29.74 in1007.1 mb 0.00 in0.0 mm 0.00 in0.0 mm 0.00 in0.0 mm
10:10 AM 56.4°F13.6°C 41.8°F5.4°C 58% 8.0 mph NW12.9 kmh NW 23.0 mph37.0 kmh 29.74 in1007.1 mb 0.00 in0.0 mm 0.00 in0.0 mm 0.00 in0.0 mm
10:05 AM 56.2°F13.4°C 42.1°F5.6°C 59% 7.0 mph NW11.3 kmh NW 16.0 mph25.7 kmh 29.74 in1007.1 mb 0.00 in0.0 mm 0.00 in0.0 mm 0.00 in0.0 mm
10:00 AM 55.8°F13.2°C 41.7°F5.4°C 59% 8.0 mph NW12.9 kmh NW 18.0 mph29.0 kmh 29.74 in1007.1 mb 0.00 in0.0 mm 0.00 in0.0 mm 0.00 in0.0 mm
09:55 AM 55.6°F13.1°C 41.5°F5.3°C 59% 9.0 mph NW14.5 kmh NW 16.0 mph25.7 kmh 29.74 in1007.1 mb 0.00 in0.0 mm 0.00 in0.0 mm 0.00 in0.0 mm
09:50 AM 55.3°F12.9°C 41.7°F5.4°C 60% 9.0 mph NW14.5 kmh NW 20.0 mph32.2 kmh 29.74 in1007.1 mb 0.00 in0.0 mm 0.00 in0.0 mm 0.00 in0.0 mm
09:45 AM 55.1°F12.8°C 41.5°F5.3°C 60% 9.0 mph NW14.5 kmh NW 20.0 mph32.2 kmh 29.74 in1007.1 mb 0.00 in0.0 mm 0.00 in0.0 mm 0.00 in0.0 mm
09:40 AM 55.2°F12.9°C 41.6°F5.3°C 60% 9.0 mph NW14.5 kmh NW 20.0 mph32.2 kmh 29.75 in1007.5 mb 0.00 in0.0 mm 0.00 in0.0 mm 0.00 in0.0 mm
09:35 AM 54.9°F12.7°C 41.7°F5.4°C 61% 9.0 mph NW14.5 kmh NW 18.0 mph29.0 kmh 29.74 in1007.1 mb 0.00 in0.0 mm 0.00 in0.0 mm 0.00 in0.0 mm
09:30 AM 54.6°F12.6°C 41.4°F5.2°C 61% 10.0 mph NW16.1 kmh NW 21.0 mph33.8 kmh 29.75 in1007.5 mb 0.00 in0.0 mm 0.00 in0.0 mm 0.00 in0.0 mm
09:25 AM 54.4°F12.4°C 41.7°F5.4°C 62% 8.0 mph NW12.9 kmh NW 19.0 mph30.6 kmh 29.74 in1007.1 mb 0.00 in0.0 mm 0.00 in0.0 mm 0.00 in0.0 mm
09:20 AM 54.4°F12.4°C 41.7°F5.4°C 62% 6.0 mph NW9.7 kmh NW 19.0 mph30.6 kmh 29.75 in1007.5 mb 0.00 in0.0 mm 0.00 in0.0 mm 0.00 in0.0 mm
09:15 AM 53.9°F12.2°C 41.2°F5.1°C 62% 10.0 mph NNW16.1 kmh NNW 18.0 mph29.0 kmh 29.75 in1007.5 mb 0.00 in0.0 mm 0.00 in0.0 mm 0.00 in0.0 mm
09:10 AM 54.1°F12.3°C 41.4°F5.2°C 62% 8.0 mph NW12.9 kmh NW 21.0 mph33.8 kmh 29.75 in1007.5 mb 0.00 in0.0 mm 0.00 in0.0 mm 0.00 in0.0 mm
09:05 AM 53.9°F12.2°C 41.6°F5.3°C 63% 6.0 mph NNW9.7 kmh NNW 12.0 mph19.3 kmh 29.75 in1007.5 mb 0.00 in0.0 mm 0.00 in0.0 mm 0.00 in0.0 mm
09:00 AM 53.7°F12.1°C 41.4°F5.2°C 63% 6.0 mph NW9.7 kmh NW 19.0 mph30.6 kmh 29.75 in1007.5 mb 0.00 in0.0 mm 0.00 in0.0 mm 0.00 in0.0 mm
08:55 AM 53.6°F12.0°C 41.3°F5.2°C 63% 9.0 mph NNW14.5 kmh NNW 22.0 mph35.4 kmh 29.75 in1007.5 mb 0.00 in0.0 mm 0.00 in0.0 mm 0.00 in0.0 mm
08:50 AM 53.5°F11.9°C 41.2°F5.1°C 63% 7.0 mph NW11.3 kmh NW 15.0 mph24.1 kmh 29.75 in1007.5 mb 0.00 in0.0 mm 0.00 in0.0 mm 0.00 in0.0 mm
08:45 AM 53.5°F11.9°C 41.6°F5.3°C 64% 5.0 mph NNW8.0 kmh NNW 14.0 mph22.5 kmh 29.75 in1007.5 mb 0.00 in0.0 mm 0.00 in0.0 mm 0.00 in0.0 mm
08:40 AM 53.3°F11.8°C 41.4°F5.2°C 64% 5.0 mph NNW8.0 kmh NNW 13.0 mph20.9 kmh 29.75 in1007.5 mb 0.00 in0.0 mm 0.00 in0.0 mm 0.00 in0.0 mm
08:35 AM 53.0°F11.7°C 41.6°F5.3°C 65% 5.0 mph NNW8.0 kmh NNW 16.0 mph25.7 kmh 29.75 in1007.5 mb 0.00 in0.0 mm 0.00 in0.0 mm 0.00 in0.0 mm
08:30 AM 52.8°F11.6°C 41.8°F5.4°C 66% 5.0 mph NNW8.0 kmh NNW 16.0 mph25.7 kmh 29.75 in1007.5 mb 0.00 in0.0 mm 0.00 in0.0 mm 0.00 in0.0 mm
08:25 AM 52.6°F11.4°C 41.6°F5.3°C 66% 5.0 mph NW8.0 kmh NW 16.0 mph25.7 kmh 29.74 in1007.1 mb 0.00 in0.0 mm 0.00 in0.0 mm 0.00 in0.0 mm
08:20 AM 52.5°F11.4°C 41.5°F5.3°C 66% 5.0 mph NNW8.0 kmh NNW 14.0 mph22.5 kmh 29.75 in1007.5 mb 0.00 in0.0 mm 0.00 in0.0 mm 0.00 in0.0 mm
08:15 AM 52.5°F11.4°C 41.9°F5.5°C 67% 7.0 mph NW11.3 kmh NW 18.0 mph29.0 kmh 29.75 in1007.5 mb 0.00 in0.0 mm 0.00 in0.0 mm 0.00 in0.0 mm
08:10 AM 52.4°F11.3°C 41.8°F5.4°C 67% 6.0 mph NW9.7 kmh NW 19.0 mph30.6 kmh 29.75 in1007.5 mb 0.00 in0.0 mm 0.00 in0.0 mm 0.00 in0.0 mm
08:05 AM 52.4°F11.3°C 41.8°F5.4°C 67% 4.0 mph NW6.4 kmh NW 12.0 mph19.3 kmh 29.75 in1007.5 mb 0.00 in0.0 mm 0.00 in0.0 mm 0.00 in0.0 mm
08:00 AM 52.4°F11.3°C 42.2°F5.7°C 68% 7.0 mph NNW11.3 kmh NNW 22.0 mph35.4 kmh 29.75 in1007.5 mb 0.00 in0.0 mm 0.00 in0.0 mm 0.00 in0.0 mm
07:55 AM 52.2°F11.2°C 42.3°F5.7°C 69% 5.0 mph NW8.0 kmh NW 15.0 mph24.1 kmh 29.75 in1007.5 mb 0.00 in0.0 mm 0.00 in0.0 mm 0.00 in0.0 mm
07:50 AM 52.1°F11.2°C 42.2°F5.7°C 69% 5.0 mph NW8.0 kmh NW 11.0 mph17.7 kmh 29.75 in1007.5 mb 0.00 in0.0 mm 0.00 in0.0 mm 0.00 in0.0 mm
07:45 AM 52.1°F11.2°C 42.6°F5.9°C 70% 5.0 mph NW8.0 kmh NW 14.0 mph22.5 kmh 29.74 in1007.1 mb 0.00 in0.0 mm 0.00 in0.0 mm 0.00 in0.0 mm
07:40 AM 52.0°F11.1°C 42.5°F5.8°C 70% 5.0 mph NNW8.0 kmh NNW 11.0 mph17.7 kmh 29.74 in1007.1 mb 0.00 in0.0 mm 0.00 in0.0 mm 0.00 in0.0 mm
07:35 AM 52.0°F11.1°C 42.5°F5.8°C 70% 5.0 mph NW8.0 kmh NW 13.0 mph20.9 kmh 29.74 in1007.1 mb 0.00 in0.0 mm 0.00 in0.0 mm 0.00 in0.0 mm
07:30 AM 52.0°F11.1°C 42.9°F6.1°C 71% 6.0 mph NW9.7 kmh NW 15.0 mph24.1 kmh 29.74 in1007.1 mb 0.00 in0.0 mm 0.00 in0.0 mm 0.00 in0.0 mm
07:25 AM 51.9°F11.1°C 42.8°F6.0°C 71% 5.0 mph NW8.0 kmh NW 13.0 mph20.9 kmh 29.75 in1007.5 mb 0.00 in0.0 mm 0.00 in0.0 mm 0.00 in0.0 mm
07:20 AM 51.9°F11.1°C 42.8°F6.0°C 71% 4.0 mph NW6.4 kmh NW 10.0 mph16.1 kmh 29.74 in1007.1 mb 0.00 in0.0 mm 0.00 in0.0 mm 0.00 in0.0 mm
07:15 AM 52.1°F11.2°C 42.6°F5.9°C 70% 5.0 mph NW8.0 kmh NW 12.0 mph19.3 kmh 29.74 in1007.1 mb 0.00 in0.0 mm 0.00 in0.0 mm 0.00 in0.0 mm
07:10 AM 52.3°F11.3°C 42.8°F6.0°C 70% 4.0 mph NW6.4 kmh NW 11.0 mph17.7 kmh 29.74 in1007.1 mb 0.00 in0.0 mm 0.00 in0.0 mm 0.00 in0.0 mm
07:05 AM 52.6°F11.4°C 42.7°F5.9°C 69% 4.0 mph NNW6.4 kmh NNW 10.0 mph16.1 kmh 29.74 in1007.1 mb 0.00 in0.0 mm 0.00 in0.0 mm 0.00 in0.0 mm
07:00 AM 52.9°F11.6°C 43.0°F6.1°C 69% 6.0 mph NNW9.7 kmh NNW 15.0 mph24.1 kmh 29.74 in1007.1 mb 0.00 in0.0 mm 0.00 in0.0 mm 0.00 in0.0 mm
06:55 AM 53.3°F11.8°C 43.4°F6.3°C 69% 6.0 mph NW9.7 kmh NW 14.0 mph22.5 kmh 29.74 in1007.1 mb 0.00 in0.0 mm 0.00 in0.0 mm 0.00 in0.0 mm
06:50 AM 53.6°F12.0°C 43.7°F6.5°C 69% 7.0 mph NW11.3 kmh NW 18.0 mph29.0 kmh 29.74 in1007.1 mb 0.00 in0.0 mm 0.00 in0.0 mm 0.00 in0.0 mm
06:45 AM 53.9°F12.2°C 44.7°F7.1°C 71% 7.0 mph NNW11.3 kmh NNW 19.0 mph30.6 kmh 29.74 in1007.1 mb 0.00 in0.0 mm 0.00 in0.0 mm 0.00 in0.0 mm
06:40 AM 54.1°F12.3°C 45.3°F7.4°C 72% 5.0 mph NW8.0 kmh NW 11.0 mph17.7 kmh 29.74 in1007.1 mb 0.00 in0.0 mm 0.00 in0.0 mm 0.00 in0.0 mm
06:35 AM 54.5°F12.5°C 45.7°F7.6°C 72% 6.0 mph NW9.7 kmh NW 13.0 mph20.9 kmh 29.74 in1007.1 mb 0.00 in0.0 mm 0.00 in0.0 mm 0.00 in0.0 mm
06:30 AM 54.8°F12.7°C 46.3°F7.9°C 73% 4.0 mph NW6.4 kmh NW 12.0 mph19.3 kmh 29.74 in1007.1 mb 0.00 in0.0 mm 0.00 in0.0 mm 0.00 in0.0 mm
06:25 AM 55.2°F12.9°C 46.7°F8.2°C 73% 4.0 mph NW6.4 kmh NW 12.0 mph19.3 kmh 29.73 in1006.8 mb 0.00 in0.0 mm 0.00 in0.0 mm 0.00 in0.0 mm
06:20 AM 55.5°F13.1°C 46.6°F8.1°C 72% 4.0 mph NW6.4 kmh NW 11.0 mph17.7 kmh 29.73 in1006.8 mb 0.00 in0.0 mm 0.00 in0.0 mm 0.00 in0.0 mm
06:15 AM 55.8°F13.2°C 47.3°F8.5°C 73% 4.0 mph NNW6.4 kmh NNW 11.0 mph17.7 kmh 29.72 in1006.4 mb 0.00 in0.0 mm 0.00 in0.0 mm 0.00 in0.0 mm
06:10 AM 56.0°F13.3°C 47.5°F8.6°C 73% 3.0 mph NNW4.8 kmh NNW 8.0 mph12.9 kmh 29.72 in1006.4 mb 0.00 in0.0 mm 0.00 in0.0 mm 0.00 in0.0 mm
06:05 AM 56.4°F13.6°C 47.9°F8.8°C 73% 3.0 mph NW4.8 kmh NW 9.0 mph14.5 kmh 29.72 in1006.4 mb 0.00 in0.0 mm 0.00 in0.0 mm 0.00 in0.0 mm
06:00 AM 56.6°F13.7°C 48.4°F9.1°C 74% 4.0 mph NW6.4 kmh NW 9.0 mph14.5 kmh 29.72 in1006.4 mb 0.00 in0.0 mm 0.00 in0.0 mm 0.00 in0.0 mm
05:55 AM 56.7°F13.7°C 48.9°F9.4°C 75% 4.0 mph NNW6.4 kmh NNW 9.0 mph14.5 kmh 29.72 in1006.4 mb 0.00 in0.0 mm 0.00 in0.0 mm 0.00 in0.0 mm
05:50 AM 56.7°F13.7°C 49.6°F9.8°C 77% 4.0 mph 6.4 kmh 11.0 mph17.7 kmh 29.72 in1006.4 mb 0.00 in0.0 mm 0.00 in0.0 mm 0.00 in0.0 mm
05:45 AM 56.8°F13.8°C 50.4°F10.2°C 79% 2.0 mph WNW3.2 kmh WNW 4.0 mph6.4 kmh 29.72 in1006.4 mb 0.00 in0.0 mm 0.00 in0.0 mm 0.00 in0.0 mm
05:40 AM 56.9°F13.8°C 50.8°F10.4°C 80% 1.0 mph W1.6 kmh W 3.0 mph4.8 kmh 29.71 in1006.1 mb 0.00 in0.0 mm 0.00 in0.0 mm 0.00 in0.0 mm
05:35 AM 57.1°F13.9°C 51.0°F10.6°C 80% 2.0 mph WNW3.2 kmh WNW 8.0 mph12.9 kmh 29.71 in1006.1 mb 0.00 in0.0 mm 0.00 in0.0 mm 0.00 in0.0 mm
05:30 AM 57.0°F13.9°C 51.6°F10.9°C 82% 2.0 mph NW3.2 kmh NW 5.0 mph8.0 kmh 29.72 in1006.4 mb 0.00 in0.0 mm 0.00 in0.0 mm 0.00 in0.0 mm
05:25 AM 57.0°F13.9°C 51.9°F11.1°C 83% 1.0 mph NW1.6 kmh NW 5.0 mph8.0 kmh 29.72 in1006.4 mb 0.00 in0.0 mm 0.00 in0.0 mm 0.00 in0.0 mm
05:20 AM 57.2°F14.0°C 52.4°F11.3°C 84% 2.0 mph NW3.2 kmh NW 5.0 mph8.0 kmh 29.72 in1006.4 mb 0.00 in0.0 mm 0.00 in0.0 mm 0.00 in0.0 mm
05:15 AM 57.3°F14.1°C 52.8°F11.6°C 85% 2.0 mph NNW3.2 kmh NNW 4.0 mph6.4 kmh 29.71 in1006.1 mb 0.00 in0.0 mm 0.00 in0.0 mm 0.00 in0.0 mm
05:10 AM 57.4°F14.1°C 52.9°F11.6°C 85% 1.0 mph WNW1.6 kmh WNW 4.0 mph6.4 kmh 29.71 in1006.1 mb 0.00 in0.0 mm 0.00 in0.0 mm 0.00 in0.0 mm
05:05 AM 57.5°F14.2°C 53.3°F11.8°C 86% 1.0 mph WNW1.6 kmh WNW 5.0 mph8.0 kmh 29.71 in1006.1 mb 0.00 in0.0 mm 0.00 in0.0 mm 0.00 in0.0 mm
05:00 AM 57.7°F14.3°C 53.9°F12.2°C 87% 2.0 mph WNW3.2 kmh WNW 4.0 mph6.4 kmh 29.71 in1006.1 mb 0.00 in0.0 mm 0.00 in0.0 mm 0.00 in0.0 mm
04:55 AM 57.8°F14.3°C 54.3°F12.4°C 88% 2.0 mph WSW3.2 kmh WSW 4.0 mph6.4 kmh 29.71 in1006.1 mb 0.00 in0.0 mm 0.00 in0.0 mm 0.00 in0.0 mm
04:50 AM 57.9°F14.4°C 54.4°F12.4°C 88% 2.0 mph WNW3.2 kmh WNW 4.0 mph6.4 kmh 29.71 in1006.1 mb 0.00 in0.0 mm 0.00 in0.0 mm 0.00 in0.0 mm
04:45 AM 58.1°F14.5°C 54.6°F12.6°C 88% 2.0 mph WSW3.2 kmh WSW 3.0 mph4.8 kmh 29.71 in1006.1 mb 0.00 in0.0 mm 0.00 in0.0 mm 0.00 in0.0 mm
04:40 AM 58.2°F14.6°C 54.7°F12.6°C 88% 1.0 mph NNW1.6 kmh NNW 3.0 mph4.8 kmh 29.71 in1006.1 mb 0.00 in0.0 mm 0.00 in0.0 mm 0.00 in0.0 mm
04:35 AM 58.4°F14.7°C 54.9°F12.7°C 88% 1.0 mph WSW1.6 kmh WSW 7.0 mph11.3 kmh 29.71 in1006.1 mb 0.00 in0.0 mm 0.00 in0.0 mm 0.00 in0.0 mm
04:30 AM 58.5°F14.7°C 55.0°F12.8°C 88% 1.0 mph W1.6 kmh W 3.0 mph4.8 kmh 29.71 in1006.1 mb 0.00 in0.0 mm 0.00 in0.0 mm 0.00 in0.0 mm
04:25 AM 58.6°F14.8°C 55.1°F12.8°C 88% 2.0 mph NW3.2 kmh NW 4.0 mph6.4 kmh 29.70 in1005.8 mb 0.00 in0.0 mm 0.00 in0.0 mm 0.00 in0.0 mm
04:20 AM 58.7°F14.8°C 55.2°F12.9°C 88% 1.0 mph NW1.6 kmh NW 3.0 mph4.8 kmh 29.70 in1005.8 mb 0.00 in0.0 mm 0.00 in0.0 mm 0.00 in0.0 mm
04:15 AM 58.9°F14.9°C 55.7°F13.2°C 89% 3.0 mph SSW4.8 kmh SSW 6.0 mph9.7 kmh 29.70 in1005.8 mb 0.00 in0.0 mm 0.00 in0.0 mm 0.00 in0.0 mm
04:10 AM 58.9°F14.9°C 55.7°F13.2°C 89% 2.0 mph S3.2 kmh S 4.0 mph6.4 kmh 29.69 in1005.4 mb 0.00 in0.0 mm 0.00 in0.0 mm 0.00 in0.0 mm
04:05 AM 59.1°F15.1°C 55.9°F13.3°C 89% 2.0 mph S3.2 kmh S 6.0 mph9.7 kmh 29.70 in1005.8 mb 0.00 in0.0 mm 0.00 in0.0 mm 0.00 in0.0 mm
04:00 AM 59.1°F15.1°C 55.9°F13.3°C 89% 2.0 mph S3.2 kmh S 5.0 mph8.0 kmh 29.69 in1005.4 mb 0.00 in0.0 mm 0.00 in0.0 mm 0.00 in0.0 mm
03:55 AM 59.2°F15.1°C 55.6°F13.1°C 88% 2.0 mph S3.2 kmh S 5.0 mph8.0 kmh 29.70 in1005.8 mb 0.00 in0.0 mm 0.00 in0.0 mm 0.00 in0.0 mm
03:50 AM 59.3°F15.2°C 55.7°F13.2°C 88% 2.0 mph S3.2 kmh S 7.0 mph11.3 kmh 29.70 in1005.8 mb 0.00 in0.0 mm 0.00 in0.0 mm 0.00 in0.0 mm
03:45 AM 59.5°F15.3°C 56.3°F13.5°C 89% 2.0 mph SSW3.2 kmh SSW 6.0 mph9.7 kmh 29.70 in1005.8 mb 0.00 in0.0 mm 0.00 in0.0 mm 0.00 in0.0 mm
03:40 AM 59.5°F15.3°C 55.9°F13.3°C 88% 2.0 mph SSE3.2 kmh SSE 5.0 mph8.0 kmh 29.70 in1005.8 mb 0.00 in0.0 mm 0.00 in0.0 mm 0.00 in0.0 mm
03:35 AM 59.7°F15.4°C 56.1°F13.4°C 88% 3.0 mph S4.8 kmh S 7.0 mph11.3 kmh 29.70 in1005.8 mb 0.00 in0.0 mm 0.00 in0.0 mm 0.00 in0.0 mm
03:30 AM 59.8°F15.4°C 56.2°F13.4°C 88% 2.0 mph SSW3.2 kmh SSW 8.0 mph12.9 kmh 29.70 in1005.8 mb 0.00 in0.0 mm 0.00 in0.0 mm 0.00 in0.0 mm
03:25 AM 60.0°F15.6°C 56.4°F13.6°C 88% 3.0 mph S4.8 kmh S 10.0 mph16.1 kmh 29.70 in1005.8 mb 0.00 in0.0 mm 0.00 in0.0 mm 0.00 in0.0 mm
03:20 AM 60.0°F15.6°C 56.4°F13.6°C 88% 2.0 mph S3.2 kmh S 6.0 mph9.7 kmh 29.70 in1005.8 mb 0.00 in0.0 mm 0.00 in0.0 mm 0.00 in0.0 mm
03:15 AM 60.0°F15.6°C 56.4°F13.6°C 88% 2.0 mph WSW3.2 kmh WSW 8.0 mph12.9 kmh 29.70 in1005.8 mb 0.00 in0.0 mm 0.00 in0.0 mm 0.00 in0.0 mm
03:10 AM 60.2°F15.7°C 56.6°F13.7°C 88% 2.0 mph S3.2 kmh S 5.0 mph8.0 kmh 29.70 in1005.8 mb 0.00 in0.0 mm 0.00 in0.0 mm 0.00 in0.0 mm
03:05 AM 60.4°F15.8°C 56.8°F13.8°C 88% 2.0 mph S3.2 kmh S 7.0 mph11.3 kmh 29.70 in1005.8 mb 0.00 in0.0 mm 0.00 in0.0 mm 0.00 in0.0 mm
03:00 AM 60.5°F15.8°C 56.9°F13.8°C 88% 3.0 mph SSE4.8 kmh SSE 9.0 mph14.5 kmh 29.70 in1005.8 mb 0.00 in0.0 mm 0.00 in0.0 mm 0.00 in0.0 mm
02:55 AM 60.6°F15.9°C 57.0°F13.9°C 88% 3.0 mph SSE4.8 kmh SSE 9.0 mph14.5 kmh 29.70 in1005.8 mb 0.00 in0.0 mm 0.00 in0.0 mm 0.00 in0.0 mm
02:50 AM 60.7°F15.9°C 57.1°F13.9°C 88% 4.0 mph SSE6.4 kmh SSE 10.0 mph16.1 kmh 29.71 in1006.1 mb 0.00 in0.0 mm 0.00 in0.0 mm 0.00 in0.0 mm
02:45 AM 60.8°F16.0°C 57.2°F14.0°C 88% 3.0 mph S4.8 kmh S 8.0 mph12.9 kmh 29.71 in1006.1 mb 0.00 in0.0 mm 0.00 in0.0 mm 0.00 in0.0 mm
02:40 AM 60.9°F16.1°C 57.3°F14.1°C 88% 3.0 mph S4.8 kmh S 7.0 mph11.3 kmh 29.71 in1006.1 mb 0.00 in0.0 mm 0.00 in0.0 mm 0.00 in0.0 mm
02:35 AM 61.1°F16.2°C 57.5°F14.2°C 88% 3.0 mph SW4.8 kmh SW 9.0 mph14.5 kmh 29.71 in1006.1 mb 0.00 in0.0 mm 0.00 in0.0 mm 0.00 in0.0 mm
02:30 AM 61.1°F16.2°C 57.5°F14.2°C 88% 4.0 mph S6.4 kmh S 12.0 mph19.3 kmh 29.72 in1006.4 mb 0.00 in0.0 mm 0.00 in0.0 mm 0.00 in0.0 mm
02:25 AM 61.2°F16.2°C 57.6°F14.2°C 88% 3.0 mph S4.8 kmh S 7.0 mph11.3 kmh 29.72 in1006.4 mb 0.00 in0.0 mm 0.00 in0.0 mm 0.00 in0.0 mm
02:20 AM 61.3°F16.3°C 58.0°F14.4°C 89% 4.0 mph S6.4 kmh S 9.0 mph14.5 kmh 29.72 in1006.4 mb 0.00 in0.0 mm 0.00 in0.0 mm 0.00 in0.0 mm
02:15 AM 61.2°F16.2°C 57.9°F14.4°C 89% 4.0 mph SSE6.4 kmh SSE 9.0 mph14.5 kmh 29.72 in1006.4 mb 0.00 in0.0 mm 0.00 in0.0 mm 0.00 in0.0 mm
02:10 AM 61.2°F16.2°C 57.9°F14.4°C 89% 3.0 mph SSE4.8 kmh SSE 12.0 mph19.3 kmh 29.72 in1006.4 mb 0.00 in0.0 mm 0.00 in0.0 mm 0.00 in0.0 mm
02:05 AM 61.1°F16.2°C 58.1°F14.5°C 90% 4.0 mph SSW6.4 kmh SSW 12.0 mph19.3 kmh 29.73 in1006.8 mb 0.00 in0.0 mm 0.00 in0.0 mm 0.00 in0.0 mm
02:00 AM 61.0°F16.1°C 58.0°F14.4°C 90% 5.0 mph S8.0 kmh S 13.0 mph20.9 kmh 29.74 in1007.1 mb 0.00 in0.0 mm 0.00 in0.0 mm 0.00 in0.0 mm
01:55 AM 60.9°F16.1°C 57.9°F14.4°C 90% 3.0 mph S4.8 kmh S 9.0 mph14.5 kmh 29.74 in1007.1 mb 0.00 in0.0 mm 0.00 in0.0 mm 0.00 in0.0 mm
01:50 AM 60.7°F15.9°C 57.7°F14.3°C 90% 4.0 mph SSW6.4 kmh SSW 12.0 mph19.3 kmh 29.74 in1007.1 mb 0.00 in0.0 mm 0.00 in0.0 mm 0.00 in0.0 mm
01:45 AM 60.6°F15.9°C 57.6°F14.2°C 90% 3.0 mph SSW4.8 kmh SSW 11.0 mph17.7 kmh 29.74 in1007.1 mb 0.00 in0.0 mm 0.00 in0.0 mm 0.00 in0.0 mm
01:40 AM 60.5°F15.8°C 57.5°F14.2°C 90% 4.0 mph SSE6.4 kmh SSE 12.0 mph19.3 kmh 29.75 in1007.5 mb 0.00 in0.0 mm 0.00 in0.0 mm 0.00 in0.0 mm
01:35 AM 60.4°F15.8°C 57.8°F14.3°C 91% 4.0 mph S6.4 kmh S 10.0 mph16.1 kmh 29.75 in1007.5 mb 0.00 in0.0 mm 0.00 in0.0 mm 0.00 in0.0 mm
01:30 AM 60.3°F15.7°C 57.7°F14.3°C 91% 3.0 mph SSE4.8 kmh SSE 9.0 mph14.5 kmh 29.75 in1007.5 mb 0.00 in0.0 mm 0.00 in0.0 mm 0.00 in0.0 mm
01:25 AM 60.2°F15.7°C 57.6°F14.2°C 91% 3.0 mph S4.8 kmh S 13.0 mph20.9 kmh 29.75 in1007.5 mb 0.00 in0.0 mm 0.00 in0.0 mm 0.00 in0.0 mm
01:20 AM 60.2°F15.7°C 57.6°F14.2°C 91% 3.0 mph SSE4.8 kmh SSE 9.0 mph14.5 kmh 29.76 in1007.8 mb 0.00 in0.0 mm 0.00 in0.0 mm 0.00 in0.0 mm
01:15 AM 60.1°F15.6°C 57.5°F14.2°C 91% 3.0 mph S4.8 kmh S 9.0 mph14.5 kmh 29.76 in1007.8 mb 0.00 in0.0 mm 0.00 in0.0 mm 0.00 in0.0 mm
01:10 AM 60.0°F15.6°C 57.4°F14.1°C 91% 4.0 mph S6.4 kmh S 9.0 mph14.5 kmh 29.76 in1007.8 mb 0.00 in0.0 mm 0.00 in0.0 mm 0.00 in0.0 mm
01:05 AM 59.8°F15.4°C 57.2°F14.0°C 91% 4.0 mph S6.4 kmh S 12.0 mph19.3 kmh 29.76 in1007.8 mb 0.00 in0.0 mm 0.00 in0.0 mm 0.00 in0.0 mm
01:00 AM 59.8°F15.4°C 57.2°F14.0°C 91% 2.0 mph SSW3.2 kmh SSW 8.0 mph12.9 kmh 29.77 in1008.1 mb 0.00 in0.0 mm 0.00 in0.0 mm 0.00 in0.0 mm
12:55 AM 59.7°F15.4°C 57.1°F13.9°C 91% 3.0 mph S4.8 kmh S 8.0 mph12.9 kmh 29.77 in1008.1 mb 0.00 in0.0 mm 0.00 in0.0 mm 0.00 in0.0 mm
12:50 AM 59.6°F15.3°C 57.3°F14.1°C 92% 3.0 mph S4.8 kmh S 7.0 mph11.3 kmh 29.77 in1008.1 mb 0.00 in0.0 mm 0.00 in0.0 mm 0.00 in0.0 mm
12:45 AM 59.6°F15.3°C 57.3°F14.1°C 92% 3.0 mph S4.8 kmh S 8.0 mph12.9 kmh 29.76 in1007.8 mb 0.00 in0.0 mm 0.00 in0.0 mm 0.00 in0.0 mm
12:40 AM 59.6°F15.3°C 57.3°F14.1°C 92% 4.0 mph SSW6.4 kmh SSW 14.0 mph22.5 kmh 29.77 in1008.1 mb 0.00 in0.0 mm 0.00 in0.0 mm 0.00 in0.0 mm
12:35 AM 59.5°F15.3°C 57.2°F14.0°C 92% 3.0 mph SSE4.8 kmh SSE 7.0 mph11.3 kmh 29.77 in1008.1 mb 0.00 in0.0 mm 0.00 in0.0 mm 0.00 in0.0 mm
12:30 AM 59.5°F15.3°C 57.2°F14.0°C 92% 5.0 mph S8.0 kmh S 14.0 mph22.5 kmh 29.76 in1007.8 mb 0.00 in0.0 mm 0.00 in0.0 mm 0.00 in0.0 mm
12:25 AM 59.4°F15.2°C 57.1°F13.9°C 92% 4.0 mph S6.4 kmh S 11.0 mph17.7 kmh 29.76 in1007.8 mb 0.00 in0.0 mm 0.00 in0.0 mm 0.00 in0.0 mm
12:20 AM 59.4°F15.2°C 57.1°F13.9°C 92% 5.0 mph SSE8.0 kmh SSE 13.0 mph20.9 kmh 29.76 in1007.8 mb 0.00 in0.0 mm 0.00 in0.0 mm 0.00 in0.0 mm
12:15 AM 59.3°F15.2°C 57.0°F13.9°C 92% 4.0 mph S6.4 kmh S 10.0 mph16.1 kmh 29.76 in1007.8 mb 0.00 in0.0 mm 0.00 in0.0 mm 0.00 in0.0 mm
12:10 AM 59.3°F15.2°C 57.0°F13.9°C 92% 5.0 mph SSE8.0 kmh SSE 13.0 mph20.9 kmh 29.77 in1008.1 mb 0.00 in0.0 mm 0.00 in0.0 mm 0.00 in0.0 mm
12:05 AM 59.2°F15.1°C 56.9°F13.8°C 92% 5.0 mph S8.0 kmh S 12.0 mph19.3 kmh 29.77 in1008.1 mb 0.00 in0.0 mm 0.00 in0.0 mm 0.00 in0.0 mm
12:00 AM 59.2°F15.1°C 56.9°F13.8°C 92% 5.0 mph S8.0 kmh S 11.0 mph17.7 kmh 29.78 in1008.5 mb 0.00 in0.0 mm 0.00 in0.0 mm 0.00 in0.0 mm